createdAt,value
2019-04-30T00:00:18.186Z,35.93
2019-04-30T00:03:01.751Z,36.60
2019-04-30T00:05:35.149Z,34.27
2019-04-30T00:08:05.997Z,37.63
2019-04-30T00:10:41.346Z,36.73
2019-04-30T00:13:14.538Z,37.13
2019-04-30T00:15:43.134Z,36.97
2019-04-30T00:18:15.514Z,36.37
2019-04-30T00:20:47.773Z,36.83
2019-04-30T00:23:22.590Z,38.50
2019-04-30T00:25:50.631Z,38.00
2019-04-30T00:28:21.777Z,39.10
2019-04-30T00:30:52.707Z,39.63
2019-04-30T00:33:27.489Z,37.07
2019-04-30T00:35:58.089Z,36.83
2019-04-30T00:38:33.526Z,39.27
2019-04-30T00:41:06.929Z,38.63
2019-04-30T00:43:37.792Z,38.70
2019-04-30T00:46:08.398Z,37.17
2019-04-30T00:48:39.675Z,37.33
2019-04-30T00:51:17.877Z,38.40
2019-04-30T00:53:48.509Z,38.47
2019-04-30T00:56:19.828Z,38.47
2019-04-30T00:58:48.333Z,39.03
2019-04-30T01:01:21.254Z,37.63
2019-04-30T01:03:59.638Z,37.50
2019-04-30T01:06:30.788Z,38.30
2019-04-30T01:09:05.379Z,38.47
2019-04-30T01:11:35.549Z,38.83
2019-04-30T01:14:06.660Z,38.37
2019-04-30T01:16:39.457Z,38.23
2019-04-30T01:19:21.287Z,39.87
2019-04-30T01:21:47.024Z,39.17
2019-04-30T01:24:16.151Z,39.17
2019-04-30T01:26:48.582Z,38.53
2019-04-30T01:29:20.509Z,39.67
2019-04-30T01:31:51.962Z,37.17
2019-04-30T01:34:22.975Z,39.53
2019-04-30T01:36:53.087Z,39.43
2019-04-30T01:39:29.977Z,39.80
2019-04-30T01:41:58.679Z,41.00
2019-04-30T01:44:30.639Z,39.90
2019-04-30T01:47:01.543Z,39.00
2019-04-30T01:49:42.231Z,39.63
2019-04-30T01:52:05.551Z,40.30
2019-04-30T01:54:36.720Z,41.03
2019-04-30T01:57:25.751Z,40.37
2019-04-30T02:00:04.416Z,39.27
2019-04-30T02:02:36.987Z,42.90
2019-04-30T02:05:08.933Z,39.93
2019-04-30T02:07:40.414Z,41.40
2019-04-30T02:10:11.952Z,40.80
2019-04-30T02:12:43.016Z,39.47
2019-04-30T02:15:14.176Z,37.57
2019-04-30T02:17:45.160Z,41.43
2019-04-30T02:20:15.543Z,40.83
2019-04-30T02:22:48.497Z,40.80
2019-04-30T02:25:19.857Z,39.37
2019-04-30T02:27:50.926Z,40.27
2019-04-30T02:30:21.908Z,39.47
2019-04-30T02:32:53.161Z,39.17
2019-04-30T02:35:28.921Z,39.37
2019-04-30T02:38:20.168Z,38.50
2019-04-30T02:40:52.944Z,39.47
2019-04-30T02:43:25.550Z,37.73
2019-04-30T02:45:59.914Z,39.60
2019-04-30T02:48:33.232Z,39.47
2019-04-30T02:51:06.294Z,40.07
2019-04-30T02:53:52.555Z,36.70
2019-04-30T02:56:26.758Z,37.77
2019-04-30T02:59:00.393Z,39.00
2019-04-30T03:01:30.786Z,38.33
2019-04-30T03:04:00.990Z,37.87
2019-04-30T03:06:32.163Z,39.23
2019-04-30T03:09:04.180Z,38.13
2019-04-30T03:11:35.434Z,36.30
2019-04-30T03:14:06.665Z,36.70
2019-04-30T03:16:54.341Z,38.90
2019-04-30T03:19:33.043Z,36.47
2019-04-30T03:22:10.165Z,37.37
2019-04-30T03:24:42.935Z,36.83
2019-04-30T03:27:14.369Z,37.00
2019-04-30T03:29:45.453Z,38.73
2019-04-30T03:32:21.452Z,38.00
2019-04-30T03:34:51.549Z,36.80
2019-04-30T03:37:22.293Z,39.17
2019-04-30T03:39:53.217Z,36.97
2019-04-30T03:42:24.996Z,36.83
2019-04-30T03:44:56.027Z,38.60
2019-04-30T03:47:26.300Z,40.33
2019-04-30T03:50:00.019Z,38.10
2019-04-30T03:52:30.270Z,36.03
2019-04-30T03:55:02.895Z,37.77
2019-04-30T03:57:34.099Z,35.40
2019-04-30T04:00:09.410Z,33.97
2019-04-30T04:02:41.954Z,36.77
2019-04-30T04:05:23.680Z,36.07
2019-04-30T04:08:09.545Z,36.33
2019-04-30T04:10:45.418Z,36.20
2019-04-30T04:13:16.677Z,37.70
2019-04-30T04:15:49.929Z,36.50
2019-04-30T04:18:20.635Z,38.03
2019-04-30T04:21:07.021Z,38.63
2019-04-30T04:23:24.515Z,38.13
2019-04-30T04:25:55.689Z,37.87
2019-04-30T04:28:26.850Z,37.33
2019-04-30T04:30:59.926Z,36.83
2019-04-30T04:33:29.871Z,36.13
2019-04-30T04:36:01.055Z,36.87
2019-04-30T04:38:32.300Z,35.27
2019-04-30T04:41:03.387Z,36.10
2019-04-30T04:43:34.433Z,34.23
2019-04-30T04:46:05.463Z,31.87
2019-04-30T04:48:39.370Z,34.03
2019-04-30T04:51:26.801Z,30.40
2019-04-30T04:53:42.166Z,29.13
2019-04-30T04:56:13.235Z,29.90
2019-04-30T04:58:44.493Z,29.23
2019-04-30T05:01:15.720Z,29.57
2019-04-30T05:03:49.023Z,30.07
2019-04-30T05:06:21.857Z,28.43
2019-04-30T05:08:51.966Z,28.40
2019-04-30T05:11:23.244Z,27.47
2019-04-30T05:13:58.893Z,27.00
2019-04-30T05:16:30.217Z,25.57
2019-04-30T05:19:01.309Z,25.37
2019-04-30T05:21:41.971Z,25.30
2019-04-30T05:24:05.307Z,25.33
2019-04-30T05:26:38.589Z,25.13
2019-04-30T05:29:09.554Z,26.93
2019-04-30T05:31:40.717Z,25.97
2019-04-30T05:34:11.734Z,23.63
2019-04-30T05:36:42.844Z,24.63
2019-04-30T05:39:13.906Z,23.40
2019-04-30T05:41:44.031Z,22.33
2019-04-30T05:44:18.544Z,21.73
2019-04-30T05:46:49.633Z,22.20
2019-04-30T05:49:20.850Z,20.70
2019-04-30T05:51:55.496Z,17.37
2019-04-30T05:54:24.763Z,16.87
2019-04-30T05:56:55.740Z,16.87
2019-04-30T05:59:28.813Z,17.03
2019-04-30T06:01:59.619Z,16.27
2019-04-30T06:04:30.941Z,17.43
2019-04-30T06:07:01.894Z,14.93
2019-04-30T06:09:34.752Z,15.50
2019-04-30T06:12:10.851Z,17.00
2019-04-30T06:15:00.302Z,16.10
2019-04-30T06:17:32.350Z,16.30
2019-04-30T06:20:16.129Z,16.53
2019-04-30T06:22:38.603Z,15.50
2019-04-30T06:25:10.809Z,15.33
2019-04-30T06:27:41.905Z,16.20
2019-04-30T06:30:13.241Z,15.13
2019-04-30T06:32:44.739Z,15.57
2019-04-30T06:35:15.975Z,15.03
2019-04-30T06:37:48.915Z,15.37
2019-04-30T06:40:20.886Z,14.73
2019-04-30T06:42:52.439Z,14.63
2019-04-30T06:45:23.337Z,14.60
2019-04-30T06:47:55.951Z,14.33
2019-04-30T06:50:26.876Z,14.00
2019-04-30T06:53:01.020Z,14.53
2019-04-30T06:55:31.080Z,14.17
2019-04-30T06:58:11.940Z,13.33
2019-04-30T07:00:40.062Z,13.43
2019-04-30T07:03:10.828Z,13.77
2019-04-30T07:05:42.048Z,14.20
2019-04-30T07:08:39.681Z,13.67
2019-04-30T07:11:20.411Z,13.20
2019-04-30T07:13:52.186Z,13.17
2019-04-30T07:16:23.696Z,13.20
2019-04-30T07:18:54.660Z,12.07
2019-04-30T07:21:25.938Z,13.03
2019-04-30T07:23:56.856Z,12.93
2019-04-30T07:26:28.892Z,13.57
2019-04-30T07:29:02.602Z,12.53
2019-04-30T07:31:32.999Z,12.50
2019-04-30T07:34:04.016Z,13.57
2019-04-30T07:36:48.401Z,13.83
2019-04-30T07:39:10.005Z,14.43
2019-04-30T07:41:41.504Z,15.10
2019-04-30T07:44:29.456Z,14.00
2019-04-30T07:46:45.446Z,14.10
2019-04-30T07:49:16.748Z,13.60
2019-04-30T07:51:51.083Z,14.53
2019-04-30T07:54:20.523Z,15.20
2019-04-30T07:56:51.546Z,13.77
2019-04-30T07:59:22.669Z,14.07
2019-04-30T08:02:06.433Z,13.80
2019-04-30T08:04:29.293Z,13.13
2019-04-30T08:07:02.126Z,14.03
2019-04-30T08:09:39.796Z,13.47
2019-04-30T08:12:06.384Z,13.57
2019-04-30T08:14:39.068Z,13.10
2019-04-30T08:17:10.057Z,12.80
2019-04-30T08:19:41.127Z,12.83
2019-04-30T08:22:12.378Z,13.57
2019-04-30T08:24:43.446Z,13.20
2019-04-30T08:27:14.751Z,11.27
2019-04-30T08:29:45.714Z,12.67
2019-04-30T08:32:18.931Z,12.60
2019-04-30T08:34:50.222Z,12.27
2019-04-30T08:37:21.553Z,11.53
2019-04-30T08:39:52.494Z,11.47
2019-04-30T08:42:33.293Z,11.30
2019-04-30T08:44:58.444Z,11.80
2019-04-30T08:47:29.359Z,11.17
2019-04-30T08:50:02.704Z,11.20
2019-04-30T08:52:33.403Z,10.77
2019-04-30T08:55:16.189Z,11.67
2019-04-30T08:57:39.911Z,11.93
2019-04-30T09:00:14.908Z,12.10
2019-04-30T09:02:44.683Z,11.00
2019-04-30T09:05:20.513Z,11.00
2019-04-30T09:07:51.503Z,11.57
2019-04-30T09:10:22.758Z,10.83
2019-04-30T09:12:53.695Z,11.47
2019-04-30T09:15:24.932Z,11.10
2019-04-30T09:18:03.300Z,10.80
2019-04-30T09:20:29.155Z,10.70
2019-04-30T09:23:00.149Z,10.70
2019-04-30T09:25:31.313Z,10.20
2019-04-30T09:28:04.472Z,10.20
2019-04-30T09:30:35.480Z,11.50
2019-04-30T09:33:06.607Z,9.87
2019-04-30T09:35:39.477Z,10.33
2019-04-30T09:38:10.230Z,10.93
2019-04-30T09:40:41.788Z,11.30
2019-04-30T09:43:13.013Z,10.40
2019-04-30T09:45:44.051Z,11.03
2019-04-30T09:48:15.121Z,10.93
2019-04-30T09:50:46.533Z,10.60
2019-04-30T09:53:19.508Z,10.57
2019-04-30T09:55:51.007Z,10.10
2019-04-30T09:58:22.438Z,10.50
2019-04-30T10:00:53.527Z,10.20
2019-04-30T10:03:25.254Z,9.20
2019-04-30T10:05:56.683Z,8.93
2019-04-30T10:08:27.447Z,9.63
2019-04-30T10:11:09.755Z,9.07
2019-04-30T10:13:39.920Z,10.17
2019-04-30T10:16:29.678Z,10.03
2019-04-30T10:19:01.430Z,10.83
2019-04-30T10:21:32.556Z,10.10
2019-04-30T10:24:13.037Z,10.47
2019-04-30T10:26:39.697Z,9.50
2019-04-30T10:29:11.160Z,9.93
2019-04-30T10:31:42.292Z,10.93
2019-04-30T10:34:13.593Z,9.80
2019-04-30T10:36:44.787Z,9.80
2019-04-30T10:39:15.744Z,9.53
2019-04-30T10:41:46.947Z,8.70
2019-04-30T10:44:18.792Z,9.13
2019-04-30T10:46:50.073Z,9.30
2019-04-30T10:49:21.252Z,9.13
2019-04-30T10:51:51.583Z,9.50
2019-04-30T10:54:26.068Z,9.33
2019-04-30T10:56:55.343Z,9.23
2019-04-30T10:59:26.670Z,8.60
2019-04-30T11:01:59.198Z,9.40
2019-04-30T11:04:30.612Z,9.03
2019-04-30T11:07:01.533Z,9.57
2019-04-30T11:09:33.262Z,9.83
2019-04-30T11:12:09.502Z,9.10
2019-04-30T11:14:40.657Z,9.07
2019-04-30T11:17:11.803Z,8.70
2019-04-30T11:19:43.258Z,8.37
2019-04-30T11:22:14.349Z,8.30
2019-04-30T11:24:56.605Z,9.47
2019-04-30T11:27:18.395Z,8.13
2019-04-30T11:29:50.215Z,8.87
2019-04-30T11:32:23.776Z,8.53
2019-04-30T11:34:54.874Z,8.80
2019-04-30T11:37:26.072Z,8.53
2019-04-30T11:39:57.176Z,8.73
2019-04-30T11:42:28.423Z,8.30
2019-04-30T11:44:59.376Z,7.83
2019-04-30T11:47:32.280Z,7.80
2019-04-30T11:50:04.462Z,7.57
2019-04-30T11:52:35.743Z,8.13
2019-04-30T11:55:09.637Z,8.57
2019-04-30T11:57:40.948Z,8.20
2019-04-30T12:00:16.217Z,8.43
2019-04-30T12:02:46.827Z,7.90
2019-04-30T12:05:20.523Z,9.87
2019-04-30T12:07:52.770Z,8.17
2019-04-30T12:10:34.968Z,9.37
2019-04-30T12:13:09.528Z,8.07
2019-04-30T12:15:40.745Z,7.83
2019-04-30T12:18:14.420Z,8.40
2019-04-30T12:20:45.506Z,7.90
2019-04-30T12:23:16.509Z,8.07
2019-04-30T12:25:49.269Z,7.70
2019-04-30T12:28:20.310Z,7.03
2019-04-30T12:30:51.596Z,7.17
2019-04-30T12:33:22.626Z,7.00
2019-04-30T12:35:53.914Z,7.07
2019-04-30T12:38:24.812Z,6.90
2019-04-30T12:40:55.053Z,6.43
2019-04-30T12:43:35.238Z,7.33
2019-04-30T12:46:14.776Z,6.53
2019-04-30T12:48:54.428Z,6.43
2019-04-30T12:51:31.029Z,6.30
2019-04-30T12:54:07.665Z,6.47
2019-04-30T12:56:57.141Z,6.60
2019-04-30T12:59:33.248Z,6.07
2019-04-30T13:02:13.021Z,6.93
2019-04-30T13:04:50.444Z,5.90
2019-04-30T13:07:32.125Z,8.00
2019-04-30T13:10:11.480Z,6.30
2019-04-30T13:12:44.325Z,5.73
2019-04-30T13:15:16.165Z,6.27
2019-04-30T13:17:50.137Z,5.80
2019-04-30T13:20:29.320Z,5.67
2019-04-30T13:23:05.091Z,6.10
2019-04-30T13:25:51.228Z,5.60
2019-04-30T13:28:25.467Z,6.20
2019-04-30T13:31:04.726Z,5.50
2019-04-30T13:33:47.899Z,5.63
2019-04-30T13:36:23.093Z,6.17
2019-04-30T13:38:59.390Z,6.33
2019-04-30T13:41:46.004Z,6.40
2019-04-30T13:44:19.521Z,5.70
2019-04-30T13:46:49.805Z,5.80
2019-04-30T13:49:21.090Z,5.23
2019-04-30T13:51:58.873Z,5.70
2019-04-30T13:54:41.486Z,5.57
2019-04-30T13:57:20.483Z,6.00
2019-04-30T13:59:59.632Z,5.73
2019-04-30T14:02:40.077Z,5.77
2019-04-30T14:05:20.469Z,5.10
2019-04-30T14:08:09.543Z,5.43
2019-04-30T14:10:49.327Z,5.37
2019-04-30T14:13:26.242Z,5.60
2019-04-30T14:16:01.587Z,5.50
2019-04-30T14:18:34.186Z,4.93
2019-04-30T14:21:10.788Z,4.97
2019-04-30T14:23:41.928Z,4.83
2019-04-30T14:26:13.221Z,4.83
2019-04-30T14:28:44.239Z,4.70
2019-04-30T14:31:15.709Z,4.90
2019-04-30T14:33:46.839Z,5.47
2019-04-30T14:36:19.296Z,4.57
2019-04-30T14:38:49.946Z,6.53
2019-04-30T14:41:21.652Z,4.90
2019-04-30T14:43:57.529Z,4.03
2019-04-30T14:46:42.539Z,4.50
2019-04-30T14:49:33.040Z,4.27
2019-04-30T14:52:04.902Z,4.43
2019-04-30T14:54:37.797Z,3.97
2019-04-30T14:57:25.908Z,4.40
2019-04-30T15:00:01.854Z,3.93
2019-04-30T15:02:33.317Z,3.70
2019-04-30T15:05:08.816Z,3.63
2019-04-30T15:07:39.744Z,3.53
2019-04-30T15:10:11.215Z,4.20
2019-04-30T15:12:42.162Z,4.00
2019-04-30T15:15:14.291Z,3.90
2019-04-30T15:17:45.185Z,2.83
2019-04-30T15:20:16.714Z,3.40
2019-04-30T15:22:55.518Z,3.70
2019-04-30T15:25:34.034Z,2.87
2019-04-30T15:27:59.619Z,2.80
2019-04-30T15:30:29.822Z,2.70
2019-04-30T15:33:18.780Z,2.80
2019-04-30T15:35:50.306Z,2.73
2019-04-30T15:38:23.062Z,2.90
2019-04-30T15:40:54.038Z,2.67
2019-04-30T15:43:25.608Z,2.10
2019-04-30T15:45:57.330Z,2.40
2019-04-30T15:48:28.488Z,2.40
2019-04-30T15:50:59.528Z,2.40
2019-04-30T15:53:30.706Z,2.63
2019-04-30T15:56:01.732Z,2.93
2019-04-30T15:58:34.580Z,2.70
2019-04-30T16:01:09.009Z,2.90
2019-04-30T16:03:41.774Z,2.90
2019-04-30T16:06:12.755Z,2.87
2019-04-30T16:08:47.312Z,3.03
2019-04-30T16:11:26.031Z,2.77
2019-04-30T16:14:09.647Z,2.87
2019-04-30T16:16:42.450Z,2.30
2019-04-30T16:19:13.466Z,2.57
2019-04-30T16:21:44.545Z,2.50
2019-04-30T16:24:15.710Z,2.73
2019-04-30T16:26:50.654Z,2.57
2019-04-30T16:29:19.623Z,2.63
2019-04-30T16:31:51.031Z,2.03
2019-04-30T16:34:21.939Z,1.90
2019-04-30T16:36:56.385Z,2.07
2019-04-30T16:39:28.795Z,1.90
2019-04-30T16:42:00.081Z,2.10
2019-04-30T16:44:31.146Z,2.23
2019-04-30T16:47:13.106Z,2.07
2019-04-30T16:49:35.060Z,2.00
2019-04-30T16:52:05.472Z,2.17
2019-04-30T16:54:36.714Z,1.77
2019-04-30T16:57:10.086Z,1.87
2019-04-30T16:59:43.820Z,2.00
2019-04-30T17:02:15.018Z,2.30
2019-04-30T17:04:53.808Z,1.33
2019-04-30T17:07:26.482Z,1.50
2019-04-30T17:10:05.593Z,1.90
2019-04-30T17:12:53.213Z,1.60
2019-04-30T17:15:29.219Z,1.70
2019-04-30T17:18:00.432Z,2.23
2019-04-30T17:20:31.597Z,1.73
2019-04-30T17:23:02.502Z,1.53
2019-04-30T17:25:33.996Z,1.50
2019-04-30T17:28:05.256Z,1.57
2019-04-30T17:30:36.474Z,1.90
2019-04-30T17:33:09.532Z,1.33
2019-04-30T17:35:39.361Z,1.60
2019-04-30T17:38:11.685Z,1.63
2019-04-30T17:40:42.650Z,1.70
2019-04-30T17:43:14.032Z,1.70
2019-04-30T17:45:45.079Z,2.10
2019-04-30T17:48:16.398Z,1.70
2019-04-30T17:50:49.635Z,1.77
2019-04-30T17:53:20.726Z,2.23
2019-04-30T17:55:51.760Z,1.83
2019-04-30T17:58:25.849Z,2.00
2019-04-30T18:00:59.798Z,1.73
2019-04-30T18:03:30.981Z,2.10
2019-04-30T18:06:02.211Z,2.23
2019-04-30T18:08:32.284Z,1.97
2019-04-30T18:11:03.428Z,2.20
2019-04-30T18:13:34.803Z,1.77
2019-04-30T18:16:06.499Z,1.97
2019-04-30T18:18:42.537Z,1.93
2019-04-30T18:21:19.085Z,1.97
2019-04-30T18:24:08.656Z,2.10
2019-04-30T18:26:44.642Z,2.53
2019-04-30T18:29:16.211Z,2.03
2019-04-30T18:31:47.570Z,2.40
2019-04-30T18:34:19.993Z,3.40
2019-04-30T18:36:51.369Z,2.40
2019-04-30T18:39:22.212Z,2.90
2019-04-30T18:41:53.654Z,2.97
2019-04-30T18:44:29.466Z,2.57
2019-04-30T18:47:00.679Z,2.50
2019-04-30T18:49:33.296Z,3.43
2019-04-30T18:52:03.580Z,2.90
2019-04-30T18:54:34.833Z,3.00
2019-04-30T18:57:08.897Z,2.93
2019-04-30T18:59:40.169Z,2.30
2019-04-30T19:02:13.357Z,2.47
2019-04-30T19:04:44.576Z,2.50
2019-04-30T19:07:20.052Z,3.30
2019-04-30T19:09:58.905Z,3.50
2019-04-30T19:16:08.861Z,4.80
2019-04-30T19:18:23.003Z,4.20
2019-04-30T19:20:57.453Z,4.40
2019-04-30T19:23:31.529Z,3.67
2019-04-30T19:26:02.651Z,5.73
2019-04-30T19:28:36.026Z,7.03
2019-04-30T19:31:11.695Z,5.33
2019-04-30T19:33:48.855Z,4.37
2019-04-30T19:36:33.906Z,4.43
2019-04-30T19:38:55.074Z,4.03
2019-04-30T19:41:26.245Z,4.90
2019-04-30T19:43:57.260Z,3.80
2019-04-30T19:46:29.324Z,3.47
2019-04-30T19:49:00.233Z,4.53
2019-04-30T19:51:32.112Z,4.03
2019-04-30T19:54:03.226Z,5.00
2019-04-30T19:56:34.329Z,4.43
2019-04-30T19:59:05.915Z,3.43
2019-04-30T20:04:36.786Z,4.27
2019-04-30T20:07:08.841Z,4.50
2019-04-30T20:09:42.983Z,3.17
2019-04-30T20:12:13.366Z,3.97
2019-04-30T20:14:44.538Z,3.50
2019-04-30T20:17:15.812Z,3.80
2019-04-30T20:19:49.715Z,3.10
2019-04-30T20:22:22.848Z,2.90
2019-04-30T20:24:53.017Z,2.97
2019-04-30T20:27:24.343Z,2.53
2019-04-30T20:29:56.228Z,2.67
2019-04-30T20:32:36.223Z,2.67
2019-04-30T20:35:02.720Z,2.43
2019-04-30T20:37:54.936Z,2.77
2019-04-30T20:40:33.280Z,3.00
2019-04-30T20:43:00.696Z,3.20
2019-04-30T20:45:33.135Z,3.23
2019-04-30T20:48:05.430Z,3.30
2019-04-30T20:50:38.102Z,3.63
2019-04-30T20:53:09.370Z,4.60
2019-04-30T20:55:40.837Z,4.83
2019-04-30T20:58:13.448Z,4.10
2019-04-30T21:00:44.789Z,5.07
2019-04-30T21:03:15.848Z,4.53
2019-04-30T21:05:46.869Z,4.17
2019-04-30T21:08:17.023Z,4.70
2019-04-30T21:10:49.445Z,4.10
2019-04-30T21:13:20.655Z,4.17
2019-04-30T21:15:54.835Z,4.67
2019-04-30T21:18:24.608Z,4.60
2019-04-30T21:20:55.758Z,4.93
2019-04-30T21:23:26.659Z,4.93
2019-04-30T21:25:58.981Z,4.60
2019-04-30T21:28:30.096Z,4.87
2019-04-30T21:31:02.874Z,5.30
2019-04-30T21:33:38.449Z,4.67
2019-04-30T21:36:18.887Z,4.27
2019-04-30T21:38:50.115Z,4.47
2019-04-30T21:41:21.388Z,4.67
2019-04-30T21:43:52.290Z,5.00
2019-04-30T21:46:22.446Z,4.97
2019-04-30T21:48:53.545Z,4.93
2019-04-30T21:51:24.531Z,4.07
2019-04-30T21:53:55.651Z,4.90
2019-04-30T21:56:26.621Z,5.03
2019-04-30T21:58:57.697Z,4.37
2019-04-30T22:01:29.303Z,4.80
2019-04-30T22:04:00.664Z,4.60
2019-04-30T22:06:31.640Z,4.20
2019-04-30T22:09:09.709Z,4.70
2019-04-30T22:11:40.837Z,4.80
2019-04-30T22:14:12.629Z,5.13
2019-04-30T22:16:43.732Z,5.43
2019-04-30T22:19:13.943Z,4.80
2019-04-30T22:21:45.463Z,5.13
2019-04-30T22:24:16.309Z,5.33
2019-04-30T22:26:47.474Z,5.40
2019-04-30T22:29:19.130Z,5.10
2019-04-30T22:31:50.361Z,6.07
2019-04-30T22:34:21.905Z,6.40
2019-04-30T22:36:54.469Z,5.63
2019-04-30T22:39:30.080Z,6.00
2019-04-30T22:42:04.392Z,7.10
2019-04-30T22:44:35.273Z,7.20
2019-04-30T22:47:06.711Z,7.63
2019-04-30T22:49:37.771Z,6.67
2019-04-30T22:52:09.051Z,6.70
2019-04-30T22:54:40.034Z,6.37
2019-04-30T22:57:10.151Z,6.33
2019-04-30T22:59:49.838Z,6.03
2019-04-30T23:02:21.251Z,5.10
2019-04-30T23:04:53.446Z,5.63
2019-04-30T23:07:27.229Z,6.50
2019-04-30T23:09:58.565Z,6.13
2019-04-30T23:12:29.599Z,5.73
2019-04-30T23:15:00.795Z,6.97
2019-04-30T23:17:31.809Z,6.03
2019-04-30T23:20:03.421Z,5.70
2019-04-30T23:22:34.458Z,6.50
2019-04-30T23:25:06.466Z,6.07
2019-04-30T23:27:37.346Z,6.30
2019-04-30T23:30:08.869Z,7.20
2019-04-30T23:32:39.809Z,6.13
2019-04-30T23:35:10.301Z,6.47
2019-04-30T23:37:41.588Z,6.80
2019-04-30T23:40:30.375Z,6.67
2019-04-30T23:43:01.667Z,6.67
2019-04-30T23:45:32.581Z,6.50
2019-04-30T23:48:03.711Z,6.17
2019-04-30T23:50:34.644Z,6.90
2019-04-30T23:53:05.943Z,6.73
2019-04-30T23:55:37.016Z,7.03
2019-04-30T23:58:08.446Z,8.30
